Time;durP1;ratioP1;P1;durP2;ratioP2;P2;SDS_P1;SDS_P2;PMS_P1;PMS_P2;Temp;Humidity;BMP_temperature;BMP_pressure;BME280_temperature;BME280_humidity;BME280_pressure;Samples;Min_cycle;Max_cycle;Signal;HPM_P1;HPM_P2
2021/06/07 00:01:30;;;;;;;;;6.75;6.00;;;;;17.32;62.74;100470.06;5007896;28;48085;-84
2021/06/07 00:03:56;;;;;;;;;5.00;5.00;;;;;17.50;62.79;100503.50;5011972;28;45715;-82
2021/06/07 00:06:21;;;;;;;;;7.50;6.00;;;;;17.42;62.81;100503.78;5008031;28;45579;-84
2021/06/07 00:08:47;;;;;;;;;8.25;6.50;;;;;17.33;63.04;100494.22;5011496;28;50049;-84
2021/06/07 00:11:13;;;;;;;;;7.50;6.00;;;;;17.29;63.19;100499.75;5009622;28;46326;-84
2021/06/07 00:13:40;;;;;;;;;6.50;6.00;;;;;17.26;63.45;100503.44;5039063;28;45423;-83
2021/06/07 00:16:06;;;;;;;;;6.25;5.00;;;;;17.22;63.17;100506.28;5011695;28;45504;-85
2021/06/07 00:18:31;;;;;;;;;4.75;4.25;;;;;17.18;63.30;100503.69;5012395;28;45591;-82
2021/06/07 00:21:11;;;;;;;;;5.75;5.75;;;;;17.14;63.25;100496.66;5006741;28;47025;-84
2021/06/07 00:23:38;;;;;;;;;5.50;5.50;;;;;17.12;63.44;100490.50;5008229;28;45567;-85
2021/06/07 00:26:05;;;;;;;;;6.00;6.00;;;;;17.12;63.49;100490.50;4999956;28;46183;-84
2021/06/07 00:28:34;;;;;;;;;7.50;7.50;;;;;17.12;63.18;100495.88;5006942;28;45733;-84
2021/06/07 00:31:02;;;;;;;;;8.25;6.50;;;;;17.05;63.82;100483.53;4996646;28;46210;-83
2021/06/07 00:33:28;;;;;;;;;7.00;7.00;;;;;17.11;63.81;100496.78;5015672;28;45837;-84
2021/06/07 00:35:53;;;;;;;;;5.50;5.50;;;;;17.07;63.52;100494.28;5028536;28;48839;-80
2021/06/07 00:38:19;;;;;;;;;8.25;5.50;;;;;17.00;63.92;100489.09;5008514;28;45341;-84
2021/06/07 00:40:44;;;;;;;;;7.00;6.00;;;;;17.00;63.85;100497.16;5007087;28;61247;-83
2021/06/07 00:43:10;;;;;;;;;7.00;7.00;;;;;16.97;63.82;100497.28;5006607;28;45483;-83
2021/06/07 00:45:36;;;;;;;;;6.25;6.00;;;;;16.92;63.68;100496.50;5007261;28;45356;-82
2021/06/07 00:48:03;;;;;;;;;8.25;8.25;;;;;16.80;64.02;100476.31;5012662;28;45369;-83
2021/06/07 00:50:40;;;;;;;;;7.50;7.25;;;;;16.78;64.28;100485.34;5008459;28;45410;-84
2021/06/07 00:53:09;;;;;;;;;9.50;6.50;;;;;16.78;64.11;100490.72;5007962;28;45809;-86
2021/06/07 00:55:39;;;;;;;;;5.00;5.00;;;;;16.63;64.33;100471.50;5032513;28;45399;-83
2021/06/07 00:58:06;;;;;;;;;6.75;6.00;;;;;16.73;64.32;100485.50;4990994;28;45738;-86
2021/06/07 01:00:34;;;;;;;;;7.75;5.50;;;;;16.62;64.49;100480.50;5012016;28;45432;-84
2021/06/07 01:03:00;;;;;;;;;7.50;5.50;;;;;16.60;64.26;100471.59;5003909;28;45898;-85
2021/06/07 01:05:26;;;;;;;;;6.00;4.50;;;;;16.64;64.41;100483.13;5004117;28;45484;-83
2021/06/07 01:07:51;;;;;;;;;5.25;5.25;;;;;16.61;64.50;100481.41;5003601;28;45551;-84
2021/06/07 01:10:17;;;;;;;;;8.50;6.75;;;;;16.58;64.89;100481.50;4996343;28;46032;-82
2021/06/07 01:12:43;;;;;;;;;9.00;7.00;;;;;16.54;64.74;100469.13;5009958;28;45464;-84
2021/06/07 01:15:10;;;;;;;;;7.50;7.50;;;;;16.50;64.50;100465.66;5017276;28;45415;-83
2021/06/07 01:17:35;;;;;;;;;7.00;6.25;;;;;16.51;64.75;100478.13;5010487;28;45650;-83
2021/06/07 01:20:01;;;;;;;;;10.00;7.25;;;;;16.48;64.37;100472.88;5024228;28;45568;-83
2021/06/07 01:22:26;;;;;;;;;5.00;5.00;;;;;16.42;64.65;100470.38;5040408;28;45518;-85
2021/06/07 01:24:52;;;;;;;;;8.25;6.50;;;;;16.39;64.65;100468.69;5006179;28;51223;-82
2021/06/07 01:27:18;;;;;;;;;9.00;8.25;;;;;16.37;65.00;100469.66;5024996;28;45576;-83
2021/06/07 01:29:43;;;;;;;;;8.25;8.25;;;;;16.25;65.00;100455.69;5027122;28;47323;-86
2021/06/07 01:32:09;;;;;;;;;7.75;7.25;;;;;16.34;64.89;100476.03;5010893;28;45523;-85
2021/06/07 01:34:34;;;;;;;;;7.75;6.25;;;;;16.24;65.18;100463.81;5039375;28;45530;-83
2021/06/07 01:37:01;;;;;;;;;10.00;9.00;;;;;16.26;64.89;100470.00;5041304;28;45640;-86
2021/06/07 01:39:27;;;;;;;;;7.75;5.50;;;;;16.26;64.83;100467.31;5001497;28;45344;-85
2021/06/07 01:41:54;;;;;;;;;7.75;5.25;;;;;16.21;65.04;100467.44;4993408;28;45791;-85
2021/06/07 01:44:19;;;;;;;;;7.50;6.75;;;;;16.15;65.32;100453.34;5025287;28;45313;-83
2021/06/07 01:46:45;;;;;;;;;9.25;7.00;;;;;16.19;65.22;100474.66;5012384;28;45486;-82
2021/06/07 01:49:11;;;;;;;;;8.00;7.25;;;;;16.20;65.38;100470.19;5015118;28;46042;-85
2021/06/07 01:51:36;;;;;;;;;8.75;7.50;;;;;16.19;65.33;100474.66;5010174;28;45443;-84
2021/06/07 01:54:02;;;;;;;;;10.50;8.50;;;;;16.11;65.58;100463.28;5014644;28;45787;-86
2021/06/07 01:56:28;;;;;;;;;9.00;9.00;;;;;16.11;65.27;100460.63;5014364;28;45917;-84
2021/06/07 01:58:53;;;;;;;;;8.75;7.75;;;;;16.12;65.64;100462.38;5022495;28;59558;-84
2021/06/07 02:01:20;;;;;;;;;10.50;7.75;;;;;16.09;65.40;100468.72;5012976;28;45760;-85
2021/06/07 02:03:46;;;;;;;;;7.25;7.25;;;;;16.12;65.44;100470.44;5014988;28;45533;-86
2021/06/07 02:06:14;;;;;;;;;4.75;4.75;;;;;16.10;65.78;100467.81;5028479;28;45722;-80
2021/06/07 02:08:41;;;;;;;;;11.75;10.75;;;;;15.90;65.64;100452.28;5009946;28;46049;-83
2021/06/07 02:11:08;;;;;;;;;8.75;7.75;;;;;16.00;66.03;100468.13;5013750;28;46141;-84
2021/06/07 02:13:33;;;;;;;;;9.00;8.00;;;;;15.97;66.12;100474.47;5039854;28;45448;-85
2021/06/07 02:16:25;;;;;;;;;9.00;8.00;;;;;15.94;65.83;100470.06;5001051;28;45492;-85
2021/06/07 02:18:51;;;;;;;;;8.75;8.00;;;;;15.88;66.31;100464.00;5013839;28;46487;-84
2021/06/07 02:21:20;;;;;;;;;6.75;6.25;;;;;15.85;66.22;100456.03;5015833;28;45394;-85
2021/06/07 02:23:49;;;;;;;;;11.00;10.25;;;;;15.78;66.21;100458.88;5042674;28;45628;-85
2021/06/07 02:26:14;;;;;;;;;9.00;8.00;;;;;15.87;65.99;100470.31;5013633;28;45421;-85
2021/06/07 02:28:49;;;;;;;;;12.00;10.50;;;;;15.84;66.10;100467.66;5014846;28;46195;-83
2021/06/07 02:31:15;;;;;;;;;11.00;10.00;;;;;15.87;66.12;100475.66;5010315;28;45839;-84
2021/06/07 02:33:41;;;;;;;;;8.50;8.00;;;;;15.79;66.00;100449.03;4995962;28;45929;-84
2021/06/07 02:36:06;;;;;;;;;11.75;9.00;;;;;15.83;65.91;100469.47;5015308;28;45447;-85
2021/06/07 02:38:32;;;;;;;;;9.00;9.00;;;;;15.84;66.07;100470.34;5041425;28;46219;-83
2021/06/07 02:40:57;;;;;;;;;9.75;6.75;;;;;15.79;65.95;100468.69;5014431;28;45511;-83
2021/06/07 02:43:22;;;;;;;;;8.00;8.00;;;;;15.76;66.04;100466.09;4993763;28;47292;-84
2021/06/07 02:45:48;;;;;;;;;10.00;10.00;;;;;15.74;65.96;100464.41;5043979;28;45769;-84
2021/06/07 02:48:14;;;;;;;;;9.50;5.00;;;;;15.77;66.00;100473.22;4989972;28;47685;-85
2021/06/07 02:50:42;;;;;;;;;9.00;7.00;;;;;15.77;66.20;100475.00;5030802;28;51224;-85
2021/06/07 02:53:08;;;;;;;;;8.75;8.75;;;;;15.77;66.23;100481.28;5013065;28;45552;-85
2021/06/07 02:55:39;;;;;;;;;10.00;8.50;;;;;15.76;66.01;100479.50;5011256;28;45572;-82
2021/06/07 02:58:05;;;;;;;;;7.25;7.25;;;;;15.73;65.86;100481.41;5007147;28;48249;-85
2021/06/07 03:00:39;;;;;;;;;7.00;7.00;;;;;15.63;66.27;100473.63;5013181;28;45435;-85
2021/06/07 03:03:05;;;;;;;;;8.00;8.00;;;;;15.67;66.25;100486.94;5012057;28;45593;-85
2021/06/07 03:05:31;;;;;;;;;11.50;9.25;;;;;15.61;66.37;100480.84;5005639;28;45539;-83
2021/06/07 03:07:56;;;;;;;;;7.25;7.25;;;;;15.57;66.18;100467.56;5008317;28;46058;-85
2021/06/07 03:10:22;;;;;;;;;7.50;5.75;;;;;15.50;66.11;100464.19;5010855;28;45439;-84
2021/06/07 03:12:48;;;;;;;;;9.00;8.25;;;;;15.53;66.10;100466.78;5042151;28;45443;-85
2021/06/07 03:15:16;;;;;;;;;8.50;8.25;;;;;15.54;66.41;100467.66;5036425;28;45472;-86
2021/06/07 03:17:42;;;;;;;;;11.25;8.00;;;;;15.55;66.24;100481.03;5006875;28;46639;-85
2021/06/07 03:20:10;;;;;;;;;8.75;8.75;;;;;15.46;66.46;100465.16;5013423;28;45866;-84
2021/06/07 03:22:35;;;;;;;;;6.50;6.50;;;;;15.48;66.58;100474.97;5012839;28;45467;-84
2021/06/07 03:25:01;;;;;;;;;6.75;6.75;;;;;15.44;66.14;100470.59;5015662;28;59524;-84
2021/06/07 03:27:26;;;;;;;;;13.75;8.50;;;;;15.46;66.13;100481.25;5013325;28;46045;-84
2021/06/07 03:29:51;;;;;;;;;9.50;8.75;;;;;15.39;65.97;100460.91;5014004;28;47802;-85
2021/06/07 03:32:17;;;;;;;;;6.00;6.00;;;;;15.42;66.38;100474.25;5014181;28;47608;-84
2021/06/07 03:34:42;;;;;;;;;11.00;7.50;;;;;15.39;66.04;100474.31;5013451;28;45472;-84
2021/06/07 03:37:08;;;;;;;;;9.50;8.25;;;;;15.38;66.40;100481.50;5014148;28;46284;-85
2021/06/07 03:39:33;;;;;;;;;10.75;8.75;;;;;15.35;66.58;100473.53;5007814;28;45445;-83
2021/06/07 03:41:59;;;;;;;;;9.50;8.25;;;;;15.33;66.51;100472.69;5011240;28;46725;-84
2021/06/07 03:44:25;;;;;;;;;8.00;8.00;;;;;15.30;66.31;100470.97;5010290;28;48901;-84
2021/06/07 03:46:50;;;;;;;;;8.50;8.50;;;;;15.22;66.42;100461.38;5008054;28;52150;-84
2021/06/07 03:49:16;;;;;;;;;9.25;7.50;;;;;15.27;66.53;100471.06;5003914;28;45518;-85
2021/06/07 03:51:41;;;;;;;;;10.50;10.00;;;;;15.14;66.54;100446.41;5013365;28;45514;-85
2021/06/07 03:54:07;;;;;;;;;8.75;7.75;;;;;15.24;66.73;100468.44;5014108;28;45449;-85
2021/06/07 03:56:33;;;;;;;;;10.00;9.00;;;;;15.19;66.71;100460.53;5037675;28;45898;-84
2021/06/07 03:58:58;;;;;;;;;9.50;8.50;;;;;15.16;66.44;100457.06;5000853;28;45736;-81
2021/06/07 04:01:23;;;;;;;;;9.25;8.75;;;;;15.16;66.46;100460.66;5006221;28;48952;-84
2021/06/07 04:03:49;;;;;;;;;10.00;10.00;;;;;15.21;66.52;100464.97;5012492;28;45744;-84
2021/06/07 04:06:16;;;;;;;;;11.75;8.75;;;;;15.19;66.58;100467.72;5004264;28;45665;-83
2021/06/07 04:08:42;;;;;;;;;11.00;9.00;;;;;15.18;66.72;100461.44;5007235;28;45447;-84
2021/06/07 04:11:10;;;;;;;;;10.50;9.75;;;;;15.12;66.86;100455.41;5008474;28;45665;-84
2021/06/07 04:13:35;;;;;;;;;8.50;7.25;;;;;15.20;66.40;100461.44;5036972;28;45790;-83
2021/06/07 04:16:00;;;;;;;;;9.25;9.25;;;;;15.19;66.50;100455.19;5011818;28;45466;-85
2021/06/07 04:18:26;;;;;;;;;12.75;8.50;;;;;15.19;66.40;100463.22;5009528;28;60012;-84
2021/06/07 04:20:51;;;;;;;;;10.25;9.00;;;;;15.14;66.64;100450.84;5012571;28;45517;-83
2021/06/07 04:23:17;;;;;;;;;7.50;6.25;;;;;15.14;66.69;100462.47;5010926;28;45657;-84
2021/06/07 04:25:42;;;;;;;;;11.25;9.50;;;;;15.18;66.57;100465.94;5023206;28;47000;-84
2021/06/07 04:28:08;;;;;;;;;14.75;9.25;;;;;15.16;66.59;100462.44;5012296;28;45347;-84
2021/06/07 04:30:33;;;;;;;;;11.50;8.50;;;;;15.18;66.80;100461.44;4979406;28;45567;-83
2021/06/07 04:33:00;;;;;;;;;9.00;9.00;;;;;15.12;66.75;100450.06;4986165;28;45624;-84
2021/06/07 04:35:26;;;;;;;;;9.75;8.00;;;;;15.21;66.59;100460.50;5009478;28;45466;-84
2021/06/07 04:37:53;;;;;;;;;9.25;9.25;;;;;15.12;66.63;100448.22;5007816;28;47207;-83
2021/06/07 04:40:22;;;;;;;;;8.75;8.75;;;;;15.23;66.43;100460.47;4994101;28;50538;-84
2021/06/07 04:42:48;;;;;;;;;10.75;10.00;;;;;15.24;66.78;100462.22;5010364;28;45835;-82
2021/06/07 04:45:14;;;;;;;;;9.75;9.75;;;;;15.21;67.04;100456.94;4975809;28;46005;-83
2021/06/07 04:47:39;;;;;;;;;8.50;8.50;;;;;15.15;66.78;100450.84;5011056;28;45722;-83
2021/06/07 04:50:07;;;;;;;;;9.75;8.50;;;;;15.25;66.83;100461.31;5044307;28;45662;-84
2021/06/07 04:52:35;;;;;;;;;8.50;7.50;;;;;15.18;66.76;100453.41;5026761;28;45611;-83
2021/06/07 04:55:00;;;;;;;;;9.75;9.75;;;;;15.25;67.05;100469.34;5039933;28;46029;-81
2021/06/07 04:57:26;;;;;;;;;7.25;7.25;;;;;15.26;67.16;100463.94;5011225;28;45548;-82
2021/06/07 04:59:51;;;;;;;;;8.25;8.25;;;;;15.31;67.12;100467.38;5011419;28;45429;-83
2021/06/07 05:02:16;;;;;;;;;11.00;9.25;;;;;15.33;66.92;100462.88;5009150;28;57683;-82
2021/06/07 05:04:42;;;;;;;;;11.00;8.50;;;;;15.34;66.99;100467.28;5044132;28;62547;-84
2021/06/07 05:07:07;;;;;;;;;9.50;9.50;;;;;15.28;67.26;100454.06;5011989;28;45444;-83
2021/06/07 05:09:32;;;;;;;;;9.75;8.75;;;;;15.32;67.36;100461.09;5007607;28;56240;-84
2021/06/07 05:11:58;;;;;;;;;13.00;11.50;;;;;15.44;67.13;100467.03;4989496;28;61415;-85
2021/06/07 05:14:23;;;;;;;;;11.75;10.25;;;;;15.38;67.08;100451.09;5026805;28;62434;-84
2021/06/07 05:16:49;;;;;;;;;7.75;7.75;;;;;15.45;67.22;100461.63;5038262;28;45509;-80
2021/06/07 05:19:14;;;;;;;;;9.50;9.50;;;;;15.46;67.03;100455.34;5019854;28;45807;-84
2021/06/07 05:21:40;;;;;;;;;12.50;9.25;;;;;15.55;66.81;100464.94;4880508;28;73391;-83
2021/06/07 05:24:05;;;;;;;;;14.25;10.50;;;;;15.60;67.28;100470.16;4985187;28;45629;-83
2021/06/07 05:26:31;;;;;;;;;8.75;8.75;;;;;15.62;67.22;100462.94;5041153;28;46137;-82
2021/06/07 05:28:56;;;;;;;;;7.50;7.25;;;;;15.59;66.87;100455.88;5007891;28;53230;-83
2021/06/07 05:31:25;;;;;;;;;9.25;8.75;;;;;15.60;67.75;100464.81;4946474;28;45578;-84
2021/06/07 05:33:50;;;;;;;;;7.75;6.50;;;;;15.63;67.35;100457.53;4827382;28;90070;-82
2021/06/07 05:36:15;;;;;;;;;10.75;9.00;;;;;15.73;67.51;100473.38;4935687;28;46108;-84
2021/06/07 05:38:41;;;;;;;;;9.50;8.50;;;;;15.75;67.33;100471.53;4959346;28;53404;-84
2021/06/07 05:41:06;;;;;;;;;9.75;8.25;;;;;15.80;67.24;100467.78;5007745;28;45594;-77
2021/06/07 05:43:31;;;;;;;;;12.50;10.00;;;;;15.88;67.17;100474.75;5009715;28;46407;-84
2021/06/07 05:45:57;;;;;;;;;12.00;9.00;;;;;15.88;67.24;100461.31;5007404;28;45772;-84
2021/06/07 05:48:22;;;;;;;;;10.50;9.75;;;;;15.88;67.34;100455.97;5008618;28;46542;-84
2021/06/07 05:50:48;;;;;;;;;10.25;10.00;;;;;15.99;67.44;100477.09;5006983;28;45391;-85
2021/06/07 05:53:14;;;;;;;;;10.50;9.75;;;;;16.01;67.34;100464.50;5024544;28;67284;-84
2021/06/07 05:55:46;;;;;;;;;9.25;8.00;;;;;16.07;67.34;100478.63;5011015;28;45993;-84
2021/06/07 05:58:18;;;;;;;;;13.00;9.50;;;;;16.02;67.27;100458.22;5011016;28;45446;-83
2021/06/07 06:00:45;;;;;;;;;10.00;9.25;;;;;16.11;67.32;100468.66;5012188;28;45491;-84
2021/06/07 06:03:11;;;;;;;;;15.25;10.50;;;;;16.21;67.51;100480.88;5033648;28;45429;-82
2021/06/07 06:05:37;;;;;;;;;10.00;8.75;;;;;16.22;67.04;100471.91;5010001;28;45518;-84
2021/06/07 06:08:04;;;;;;;;;10.00;10.00;;;;;16.28;67.39;100473.50;5009494;28;45925;-84
2021/06/07 06:10:30;;;;;;;;;8.25;8.00;;;;;16.38;67.20;100480.34;5011227;28;45676;-84
2021/06/07 06:12:55;;;;;;;;;13.50;9.50;;;;;16.28;67.12;100457.41;5007657;28;45487;-84
2021/06/07 06:15:23;;;;;;;;;7.00;6.50;;;;;16.48;67.03;100480.03;5031558;28;45454;-82
2021/06/07 06:17:50;;;;;;;;;11.25;10.50;;;;;16.51;67.35;100490.69;5011017;28;45700;-84
2021/06/07 06:20:15;;;;;;;;;11.50;7.75;;;;;16.49;67.08;100485.38;5007529;28;46564;-84
2021/06/07 06:22:42;;;;;;;;;7.75;7.75;;;;;16.52;67.24;100482.56;5022429;28;48085;-83
2021/06/07 06:25:09;;;;;;;;;10.00;7.50;;;;;16.58;67.03;100489.56;4972328;28;45824;-85
2021/06/07 06:27:36;;;;;;;;;11.25;10.50;;;;;16.65;66.96;100485.78;5016761;28;45422;-83
2021/06/07 06:30:08;;;;;;;;;10.00;9.50;;;;;16.65;67.21;100483.09;5011898;28;45823;-85
2021/06/07 06:32:33;;;;;;;;;9.50;9.50;;;;;16.69;67.06;100490.09;5010304;28;48398;-85
2021/06/07 06:34:59;;;;;;;;;12.00;9.75;;;;;16.78;67.00;100491.59;5048178;28;45543;-82
2021/06/07 06:37:24;;;;;;;;;9.00;7.25;;;;;16.85;67.00;100494.97;5033532;28;45566;-80
2021/06/07 06:39:50;;;;;;;;;10.50;8.00;;;;;16.85;67.06;100485.09;5014764;28;45503;-79
2021/06/07 06:42:16;;;;;;;;;13.50;9.25;;;;;16.84;66.30;100483.31;5033339;28;47425;-84
2021/06/07 06:44:41;;;;;;;;;12.00;10.50;;;;;17.00;66.32;100497.16;5035520;28;45536;-83
2021/06/07 06:47:07;;;;;;;;;11.50;9.50;;;;;17.00;66.36;100491.78;5049768;28;45549;-77
2021/06/07 06:49:32;;;;;;;;;10.75;10.25;;;;;17.09;66.70;100485.22;5016615;28;45598;-84
2021/06/07 06:51:59;;;;;;;;;12.50;8.25;;;;;17.22;66.17;100495.53;5011814;28;45664;-84
2021/06/07 06:54:25;;;;;;;;;9.25;9.25;;;;;17.30;66.00;100496.13;5026047;28;45514;-84
2021/06/07 06:56:51;;;;;;;;;9.75;9.75;;;;;17.31;66.01;100474.56;5013571;28;45590;-85
2021/06/07 06:59:17;;;;;;;;;12.00;8.25;;;;;17.41;65.64;100485.88;5027640;28;45535;-84
2021/06/07 07:01:43;;;;;;;;;11.50;9.50;;;;;17.46;64.95;100485.72;5033968;28;46447;-87
2021/06/07 07:04:08;;;;;;;;;11.75;10.25;;;;;17.58;64.54;100495.13;5023050;28;46001;-88
2021/06/07 07:06:33;;;;;;;;;17.25;9.50;;;;;17.58;64.84;100474.50;5029089;28;46900;-89
2021/06/07 07:08:59;;;;;;;;;10.50;9.50;;;;;17.75;64.97;100483.75;5029544;28;45320;-94
2021/06/07 07:11:25;;;;;;;;;6.75;6.75;;;;;17.86;64.24;100481.53;5013913;28;46453;-94
2021/06/07 07:13:50;;;;;;;;;11.50;8.00;;;;;18.04;64.33;100488.06;5033932;28;45530;-90
2021/06/07 07:16:15;;;;;;;;;10.75;8.50;;;;;18.14;63.65;100487.69;5034307;28;46191;-89
2021/06/07 07:18:41;;;;;;;;;8.75;8.25;;;;;18.23;63.45;100487.31;4999545;28;45370;-89
2021/06/07 07:21:06;;;;;;;;;8.25;6.25;;;;;18.34;63.44;100486.91;5034812;28;47169;-91
2021/06/07 07:23:33;;;;;;;;;9.00;8.00;;;;;18.45;63.05;100486.47;5034575;28;45371;-87
2021/06/07 07:25:59;;;;;;;;;10.25;7.00;;;;;18.55;62.58;100488.75;5048988;28;45350;-88
2021/06/07 07:28:25;;;;;;;;;9.25;8.50;;;;;18.70;62.54;100484.53;5017127;28;45463;-85
2021/06/07 07:30:50;;;;;;;;;9.00;7.00;;;;;18.90;62.30;100496.28;5033683;28;59692;-86
2021/06/07 07:33:15;;;;;;;;;9.75;8.25;;;;;19.00;62.30;100491.41;5034808;28;50523;-87
2021/06/07 07:35:41;;;;;;;;;7.75;6.25;;;;;19.12;61.99;100487.31;5033396;28;45602;-86
2021/06/07 07:38:07;;;;;;;;;10.25;7.00;;;;;19.26;60.87;100492.97;5044894;28;45910;-89
2021/06/07 07:40:33;;;;;;;;;6.50;5.00;;;;;19.34;60.32;100485.44;5026318;28;45593;-87
2021/06/07 07:42:58;;;;;;;;;6.25;5.50;;;;;19.47;60.70;100483.06;5033898;28;45542;-85
2021/06/07 07:45:27;;;;;;;;;6.75;6.00;;;;;19.61;60.72;100487.84;5009359;28;45517;-83
2021/06/07 07:47:57;;;;;;;;;8.50;5.50;;;;;19.74;61.00;100495.38;5026235;28;45344;-85
2021/06/07 07:50:24;;;;;;;;;7.25;6.00;;;;;19.88;61.01;100494.75;5029009;28;46501;-86
2021/06/07 07:52:49;;;;;;;;;5.50;5.50;;;;;19.96;60.55;100488.06;5030485;28;45465;-87
2021/06/07 07:55:20;;;;;;;;;5.50;5.50;;;;;20.13;59.70;100492.69;5029592;28;49063;-86
2021/06/07 07:57:47;;;;;;;;;6.25;6.25;;;;;20.19;60.26;100479.81;5015777;28;45473;-87
2021/06/07 08:00:14;;;;;;;;;8.00;4.75;;;;;20.39;59.55;100486.97;5035611;28;45591;-87
2021/06/07 08:02:39;;;;;;;;;8.00;8.00;;;;;20.49;57.61;100490.97;5016093;28;45922;-87
2021/06/07 08:05:06;;;;;;;;;7.00;6.00;;;;;20.53;57.80;100476.34;5033867;28;45604;-85
2021/06/07 08:07:32;;;;;;;;;9.00;7.00;;;;;20.54;57.99;100456.47;5033149;28;45521;-85
2021/06/07 08:09:57;;;;;;;;;9.25;8.00;;;;;20.76;57.48;100466.22;5032105;28;45411;-88
2021/06/07 08:12:23;;;;;;;;;8.00;5.00;;;;;20.97;57.55;100482.31;5020618;28;45369;-87
2021/06/07 08:14:48;;;;;;;;;6.75;5.25;;;;;21.07;57.16;100477.31;5010894;28;45391;-87
2021/06/07 08:17:16;;;;;;;;;6.25;5.50;;;;;21.16;57.10;100474.13;5032777;28;45507;-86
2021/06/07 08:19:42;;;;;;;;;4.00;4.00;;;;;21.28;56.87;100472.59;5020430;28;47419;-86
2021/06/07 08:22:08;;;;;;;;;6.25;6.00;;;;;21.47;56.91;100484.22;5017079;28;45419;-87
2021/06/07 08:24:33;;;;;;;;;7.50;7.00;;;;;21.56;56.28;100476.56;5031965;28;45405;-86
2021/06/07 08:27:03;;;;;;;;;5.00;5.00;;;;;21.72;55.39;100487.47;5033238;28;51606;-86
2021/06/07 08:29:29;;;;;;;;;7.50;6.50;;;;;21.80;55.63;100480.66;5014265;28;46264;-86
2021/06/07 08:31:54;;;;;;;;;5.75;5.00;;;;;21.92;54.44;100480.94;5049030;28;45415;-87
2021/06/07 08:34:19;;;;;;;;;8.00;6.25;;;;;22.03;52.53;100485.78;5032624;28;57909;-87
2021/06/07 08:36:45;;;;;;;;;8.50;6.00;;;;;22.04;52.10;100485.69;5015097;28;49955;-87
2021/06/07 08:39:11;;;;;;;;;6.00;5.50;;;;;22.09;52.35;100486.31;5033745;28;46166;-86
2021/06/07 08:41:37;;;;;;;;;5.00;5.00;;;;;22.08;52.51;100473.72;5032922;28;45608;-87
2021/06/07 08:44:03;;;;;;;;;6.00;6.00;;;;;22.25;53.94;100486.31;5032324;28;45455;-87
2021/06/07 08:46:29;;;;;;;;;6.25;6.00;;;;;22.39;54.11;100482.81;5012383;28;45577;-87
2021/06/07 08:48:54;;;;;;;;;7.00;6.00;;;;;22.54;53.04;100485.66;5031648;28;46049;-86
2021/06/07 08:51:19;;;;;;;;;4.00;4.00;;;;;22.69;53.14;100481.16;5032472;28;51993;-87
2021/06/07 08:53:47;;;;;;;;;4.25;4.25;;;;;22.79;53.37;100485.09;5014657;28;45705;-87
2021/06/07 08:56:13;;;;;;;;;5.00;5.00;;;;;22.88;52.10;100472.81;4993800;28;45469;-88
2021/06/07 08:58:38;;;;;;;;;4.25;4.25;;;;;22.87;50.21;100468.34;5032594;28;45502;-88
2021/06/07 09:01:04;;;;;;;;;4.75;4.00;;;;;22.96;51.21;100470.53;5031111;28;64662;-87
2021/06/07 09:03:33;;;;;;;;;4.00;4.00;;;;;23.12;52.52;100484.00;5017857;28;47010;-87
2021/06/07 09:06:00;;;;;;;;;4.00;4.00;;;;;23.28;50.88;100481.28;5035659;28;45559;-89
2021/06/07 09:08:37;;;;;;;;;5.50;5.00;;;;;23.42;50.16;100482.28;5047287;28;48227;-85
2021/06/07 09:11:05;;;;;;;;;4.25;4.25;;;;;23.53;49.52;100482.47;5043382;28;45612;-91
2021/06/07 09:13:31;;;;;;;;;4.00;4.00;;;;;23.40;50.24;100448.91;5032076;28;45456;-87
2021/06/07 09:15:59;;;;;;;;;4.00;3.50;;;;;23.72;49.61;100487.66;5018429;28;45768;-92
2021/06/07 09:18:32;;;;;;;;;4.50;4.25;;;;;23.84;49.97;100485.97;5013012;28;46220;-79
2021/06/07 09:21:13;;;;;;;;;4.25;3.50;;;;;23.94;48.96;100489.00;5028755;28;45715;-89
2021/06/07 09:23:52;;;;;;;;;2.00;2.00;;;;;24.04;48.37;100492.00;5033438;28;45318;-89
2021/06/07 09:26:38;;;;;;;;;4.25;4.25;;;;;24.10;47.54;100497.06;5048408;28;45505;-91
2021/06/07 09:29:08;;;;;;;;;3.50;3.50;;;;;24.08;47.13;100482.72;5047657;28;46017;-90
2021/06/07 09:31:36;;;;;;;;;4.50;3.25;;;;;24.20;47.75;100478.31;5028904;28;45409;-90
2021/06/07 09:34:08;;;;;;;;;4.00;4.00;;;;;24.37;45.72;100485.38;5016661;28;45652;-90
2021/06/07 09:36:35;;;;;;;;;3.25;3.25;;;;;24.47;45.84;100486.50;5014104;28;45368;-87
2021/06/07 09:39:14;;;;;;;;;4.25;3.50;;;;;24.60;44.79;100492.03;4996747;28;47467;-83
2021/06/07 09:41:54;;;;;;;;;5.00;4.00;;;;;24.63;42.54;100486.34;5010227;28;45790;-89
2021/06/07 09:44:37;;;;;;;;;5.25;3.00;;;;;24.64;44.78;100490.81;5028727;28;45805;-90
2021/06/07 09:47:25;;;;;;;;;2.50;2.50;;;;;24.77;45.51;100481.88;5028444;28;45483;-90
2021/06/07 09:50:08;;;;;;;;;3.00;3.00;;;;;24.93;44.95;100492.59;5027598;28;45514;-92
2021/06/07 09:52:44;;;;;;;;;2.25;2.25;;;;;25.05;44.11;100491.75;5018790;28;45476;-91
2021/06/07 09:55:25;;;;;;;;;2.75;2.75;;;;;25.13;43.75;100494.81;5033269;28;45493;-90
2021/06/07 09:57:58;;;;;;;;;2.00;2.00;;;;;25.22;44.56;100483.28;5016032;28;45432;-89
2021/06/07 10:00:43;;;;;;;;;4.00;2.75;;;;;25.35;44.24;100483.28;5027790;28;47374;-90
2021/06/07 10:03:25;;;;;;;;;3.00;2.00;;;;;25.49;43.87;100484.22;5046983;28;45583;-90
2021/06/07 10:05:59;;;;;;;;;2.25;2.25;;;;;25.59;43.96;100487.19;5032755;28;45554;-90
2021/06/07 10:08:26;;;;;;;;;6.00;4.00;;;;;25.65;41.83;100474.00;5030485;28;45356;-86
2021/06/07 10:10:54;;;;;;;;;4.25;2.75;;;;;25.67;40.24;100485.63;5017396;28;46203;-83
2021/06/07 10:13:20;;;;;;;;;4.00;4.00;;;;;25.68;41.75;100481.91;5020553;28;45459;-89
2021/06/07 10:15:47;;;;;;;;;2.00;2.00;;;;;25.61;40.36;100466.16;5016147;28;45627;-89
2021/06/07 10:18:16;;;;;;;;;3.25;2.25;;;;;25.75;41.11;100484.22;5040313;28;45516;-85
2021/06/07 10:20:47;;;;;;;;;3.00;3.00;;;;;25.84;41.41;100473.50;5018852;28;45474;-88
2021/06/07 10:23:20;;;;;;;;;4.00;4.00;;;;;25.93;40.67;100471.09;5039869;28;45500;-86
2021/06/07 10:25:46;;;;;;;;;5.00;4.00;;;;;26.00;42.06;100477.88;5006626;28;45556;-83
2021/06/07 10:28:12;;;;;;;;;3.50;3.50;;;;;26.10;41.64;100473.50;5016228;28;45631;-86
2021/06/07 10:30:46;;;;;;;;;2.75;2.75;;;;;26.28;41.69;100467.69;5016800;28;47995;-88
2021/06/07 10:33:34;;;;;;;;;1.00;1.00;;;;;26.41;40.43;100465.78;5038235;28;45317;-85
2021/06/07 10:36:21;;;;;;;;;4.00;4.00;;;;;26.46;40.90;100476.34;5018174;28;45326;-87
2021/06/07 10:38:48;;;;;;;;;5.25;5.00;;;;;26.52;41.19;100475.03;5034154;28;45498;-88
2021/06/07 10:41:25;;;;;;;;;5.50;3.25;;;;;26.63;41.51;100472.34;5034390;28;45582;-88
2021/06/07 10:43:52;;;;;;;;;5.00;3.50;;;;;26.72;41.98;100471.66;5014441;28;46259;-89
2021/06/07 10:46:27;;;;;;;;;5.00;3.50;;;;;26.82;40.14;100469.13;5015747;28;45511;-88
2021/06/07 10:48:53;;;;;;;;;3.50;3.50;;;;;26.97;39.78;100471.66;5017793;28;45531;-89
2021/06/07 10:51:21;;;;;;;;;5.50;3.00;;;;;27.02;37.79;100459.38;5044794;28;45602;-87
2021/06/07 10:53:46;;;;;;;;;7.00;4.75;;;;;27.08;39.51;100468.09;4996884;28;45791;-89
2021/06/07 10:56:13;;;;;;;;;3.50;3.00;;;;;27.20;39.51;100472.59;5043632;28;45581;-88
2021/06/07 10:58:58;;;;;;;;;4.50;3.75;;;;;27.33;37.30;100470.63;5016729;28;45431;-87
2021/06/07 11:01:47;;;;;;;;;5.00;5.00;;;;;27.45;39.32;100476.16;5017741;28;47285;-88
2021/06/07 11:04:12;;;;;;;;;3.75;3.75;;;;;27.56;38.25;100467.13;5031651;28;46080;-85
2021/06/07 11:06:49;;;;;;;;;11.75;11.25;;;;;27.80;38.26;100470.59;5031919;28;51003;-88
2021/06/07 11:09:14;;;;;;;;;3.75;3.25;;;;;27.96;37.41;100472.97;5013771;28;45642;-90
2021/06/07 11:11:49;;;;;;;;;8.25;6.00;;;;;28.07;35.16;100465.75;5017930;28;45881;-85
2021/06/07 11:14:15;;;;;;;;;6.75;5.50;;;;;28.13;35.93;100454.34;5030800;28;45781;-89
2021/06/07 11:16:46;;;;;;;;;4.75;4.75;;;;;28.55;35.59;100462.72;5018134;28;45467;-89
2021/06/07 11:19:18;;;;;;;;;5.00;5.00;;;;;30.99;34.76;100463.19;5014702;28;45487;-90
2021/06/07 11:22:05;;;;;;;;;3.25;3.25;;;;;36.01;30.10;100460.50;5026191;28;46358;-88
2021/06/07 11:24:32;;;;;;;;;6.75;6.50;;;;;39.94;25.02;100457.19;4996714;28;45558;-91